sensor_id;sensor_type;location;lat;lon;timestamp;P1;durP1;ratioP1;P2;durP2;ratioP2
18947;SDS011;9607;51.600;7.558;2023-04-06T00:00:07;9.43;;;7.28;;
18947;SDS011;9607;51.600;7.558;2023-04-06T00:02:36;12.50;;;8.17;;
18947;SDS011;9607;51.600;7.558;2023-04-06T00:05:03;9.57;;;7.25;;
18947;SDS011;9607;51.600;7.558;2023-04-06T00:07:31;9.50;;;7.32;;
18947;SDS011;9607;51.600;7.558;2023-04-06T00:09:58;9.50;;;7.28;;
18947;SDS011;9607;51.600;7.558;2023-04-06T00:12:25;9.23;;;7.33;;
18947;SDS011;9607;51.600;7.558;2023-04-06T00:14:52;9.32;;;7.28;;
18947;SDS011;9607;51.600;7.558;2023-04-06T00:17:18;9.17;;;7.10;;
18947;SDS011;9607;51.600;7.558;2023-04-06T00:19:47;10.13;;;7.97;;
18947;SDS011;9607;51.600;7.558;2023-04-06T00:22:13;9.70;;;7.22;;
18947;SDS011;9607;51.600;7.558;2023-04-06T00:24:40;9.23;;;7.07;;
18947;SDS011;9607;51.600;7.558;2023-04-06T00:27:07;11.63;;;8.30;;
18947;SDS011;9607;51.600;7.558;2023-04-06T00:29:34;11.60;;;9.10;;
18947;SDS011;9607;51.600;7.558;2023-04-06T00:32:01;11.97;;;9.37;;
18947;SDS011;9607;51.600;7.558;2023-04-06T00:34:28;12.77;;;9.77;;
18947;SDS011;9607;51.600;7.558;2023-04-06T00:37:06;10.73;;;7.87;;
18947;SDS011;9607;51.600;7.558;2023-04-06T00:39:33;11.77;;;8.23;;
18947;SDS011;9607;51.600;7.558;2023-04-06T00:42:00;14.00;;;9.00;;
18947;SDS011;9607;51.600;7.558;2023-04-06T00:44:33;11.47;;;8.33;;
18947;SDS011;9607;51.600;7.558;2023-04-06T00:47:00;11.87;;;8.13;;
18947;SDS011;9607;51.600;7.558;2023-04-06T00:49:27;9.35;;;7.47;;
18947;SDS011;9607;51.600;7.558;2023-04-06T00:51:53;9.53;;;7.23;;
18947;SDS011;9607;51.600;7.558;2023-04-06T00:54:21;10.47;;;7.60;;
18947;SDS011;9607;51.600;7.558;2023-04-06T00:56:48;11.73;;;8.50;;
18947;SDS011;9607;51.600;7.558;2023-04-06T00:59:15;12.00;;;8.37;;
18947;SDS011;9607;51.600;7.558;2023-04-06T01:01:42;12.23;;;8.93;;
18947;SDS011;9607;51.600;7.558;2023-04-06T01:04:09;14.50;;;9.40;;
18947;SDS011;9607;51.600;7.558;2023-04-06T01:06:36;11.70;;;9.18;;
18947;SDS011;9607;51.600;7.558;2023-04-06T01:09:02;10.80;;;8.82;;
18947;SDS011;9607;51.600;7.558;2023-04-06T01:11:30;11.40;;;8.73;;
18947;SDS011;9607;51.600;7.558;2023-04-06T01:13:57;13.77;;;9.73;;
18947;SDS011;9607;51.600;7.558;2023-04-06T01:16:24;11.73;;;8.60;;
18947;SDS011;9607;51.600;7.558;2023-04-06T01:18:51;12.73;;;9.43;;
18947;SDS011;9607;51.600;7.558;2023-04-06T01:21:17;14.32;;;9.77;;
18947;SDS011;9607;51.600;7.558;2023-04-06T01:23:46;13.57;;;9.77;;
18947;SDS011;9607;51.600;7.558;2023-04-06T01:26:13;15.17;;;10.40;;
18947;SDS011;9607;51.600;7.558;2023-04-06T01:28:40;13.00;;;8.82;;
18947;SDS011;9607;51.600;7.558;2023-04-06T01:31:08;13.13;;;9.67;;
18947;SDS011;9607;51.600;7.558;2023-04-06T01:33:35;13.80;;;9.73;;
18947;SDS011;9607;51.600;7.558;2023-04-06T01:36:02;11.83;;;8.67;;
18947;SDS011;9607;51.600;7.558;2023-04-06T01:38:29;13.83;;;10.20;;
18947;SDS011;9607;51.600;7.558;2023-04-06T01:40:57;13.07;;;9.07;;
18947;SDS011;9607;51.600;7.558;2023-04-06T01:43:24;9.40;;;7.50;;
18947;SDS011;9607;51.600;7.558;2023-04-06T01:45:51;10.17;;;7.70;;
18947;SDS011;9607;51.600;7.558;2023-04-06T01:48:18;9.83;;;7.27;;
18947;SDS011;9607;51.600;7.558;2023-04-06T01:50:45;9.07;;;7.50;;
18947;SDS011;9607;51.600;7.558;2023-04-06T01:53:12;8.50;;;6.37;;
18947;SDS011;9607;51.600;7.558;2023-04-06T01:55:39;8.47;;;7.33;;
18947;SDS011;9607;51.600;7.558;2023-04-06T01:58:07;16.27;;;10.53;;
18947;SDS011;9607;51.600;7.558;2023-04-06T02:00:34;14.00;;;9.33;;
18947;SDS011;9607;51.600;7.558;2023-04-06T02:03:01;13.60;;;9.30;;
18947;SDS011;9607;51.600;7.558;2023-04-06T02:05:28;14.33;;;10.10;;
18947;SDS011;9607;51.600;7.558;2023-04-06T02:07:56;12.13;;;9.23;;
18947;SDS011;9607;51.600;7.558;2023-04-06T02:10:23;12.63;;;9.13;;
18947;SDS011;9607;51.600;7.558;2023-04-06T02:12:50;11.30;;;8.60;;
18947;SDS011;9607;51.600;7.558;2023-04-06T02:15:18;14.43;;;10.17;;
18947;SDS011;9607;51.600;7.558;2023-04-06T02:17:45;13.30;;;10.27;;
18947;SDS011;9607;51.600;7.558;2023-04-06T02:20:12;13.93;;;9.67;;
18947;SDS011;9607;51.600;7.558;2023-04-06T02:22:39;16.07;;;9.90;;
18947;SDS011;9607;51.600;7.558;2023-04-06T02:25:06;14.57;;;10.80;;
18947;SDS011;9607;51.600;7.558;2023-04-06T02:27:33;17.30;;;11.47;;
18947;SDS011;9607;51.600;7.558;2023-04-06T02:30:01;15.73;;;11.27;;
18947;SDS011;9607;51.600;7.558;2023-04-06T02:32:29;15.93;;;10.93;;
18947;SDS011;9607;51.600;7.558;2023-04-06T02:34:56;15.03;;;10.07;;
18947;SDS011;9607;51.600;7.558;2023-04-06T02:37:22;13.30;;;9.93;;
18947;SDS011;9607;51.600;7.558;2023-04-06T02:39:50;14.77;;;11.13;;
18947;SDS011;9607;51.600;7.558;2023-04-06T02:42:16;13.57;;;10.03;;
18947;SDS011;9607;51.600;7.558;2023-04-06T02:44:43;12.27;;;9.27;;
18947;SDS011;9607;51.600;7.558;2023-04-06T02:47:10;13.40;;;10.00;;
18947;SDS011;9607;51.600;7.558;2023-04-06T02:49:38;13.23;;;9.40;;
18947;SDS011;9607;51.600;7.558;2023-04-06T02:52:06;17.87;;;11.20;;
18947;SDS011;9607;51.600;7.558;2023-04-06T02:54:33;24.07;;;15.13;;
18947;SDS011;9607;51.600;7.558;2023-04-06T02:57:00;22.23;;;14.80;;
18947;SDS011;9607;51.600;7.558;2023-04-06T02:59:27;22.13;;;14.37;;
18947;SDS011;9607;51.600;7.558;2023-04-06T03:01:53;19.03;;;12.80;;
18947;SDS011;9607;51.600;7.558;2023-04-06T03:04:20;17.90;;;12.23;;
18947;SDS011;9607;51.600;7.558;2023-04-06T03:06:51;15.60;;;10.73;;
18947;SDS011;9607;51.600;7.558;2023-04-06T03:09:20;14.77;;;11.20;;
18947;SDS011;9607;51.600;7.558;2023-04-06T03:11:47;15.50;;;10.60;;
18947;SDS011;9607;51.600;7.558;2023-04-06T03:14:13;14.27;;;10.00;;
18947;SDS011;9607;51.600;7.558;2023-04-06T03:16:42;14.13;;;9.50;;
18947;SDS011;9607;51.600;7.558;2023-04-06T03:19:09;13.10;;;9.33;;
18947;SDS011;9607;51.600;7.558;2023-04-06T03:21:35;16.20;;;11.57;;
18947;SDS011;9607;51.600;7.558;2023-04-06T03:24:04;19.27;;;11.87;;
18947;SDS011;9607;51.600;7.558;2023-04-06T03:26:31;17.87;;;12.40;;
18947;SDS011;9607;51.600;7.558;2023-04-06T03:28:58;18.80;;;12.40;;
18947;SDS011;9607;51.600;7.558;2023-04-06T03:31:25;18.70;;;12.53;;
18947;SDS011;9607;51.600;7.558;2023-04-06T03:33:52;18.23;;;13.30;;
18947;SDS011;9607;51.600;7.558;2023-04-06T03:36:19;20.30;;;13.43;;
18947;SDS011;9607;51.600;7.558;2023-04-06T03:38:45;21.37;;;13.50;;
18947;SDS011;9607;51.600;7.558;2023-04-06T03:41:13;16.93;;;12.17;;
18947;SDS011;9607;51.600;7.558;2023-04-06T03:43:40;16.33;;;11.67;;
18947;SDS011;9607;51.600;7.558;2023-04-06T03:46:07;16.90;;;11.50;;
18947;SDS011;9607;51.600;7.558;2023-04-06T03:48:34;15.33;;;11.40;;
18947;SDS011;9607;51.600;7.558;2023-04-06T03:51:01;17.20;;;11.27;;
18947;SDS011;9607;51.600;7.558;2023-04-06T03:53:28;18.53;;;11.90;;
18947;SDS011;9607;51.600;7.558;2023-04-06T03:55:54;16.57;;;12.33;;
18947;SDS011;9607;51.600;7.558;2023-04-06T03:58:23;18.87;;;12.17;;
18947;SDS011;9607;51.600;7.558;2023-04-06T04:00:49;19.20;;;13.57;;
18947;SDS011;9607;51.600;7.558;2023-04-06T04:03:16;17.20;;;12.63;;
18947;SDS011;9607;51.600;7.558;2023-04-06T04:05:43;18.37;;;11.47;;
18947;SDS011;9607;51.600;7.558;2023-04-06T04:08:10;14.43;;;11.10;;
18947;SDS011;9607;51.600;7.558;2023-04-06T04:10:37;16.20;;;10.93;;
18947;SDS011;9607;51.600;7.558;2023-04-06T04:13:04;17.07;;;11.70;;
18947;SDS011;9607;51.600;7.558;2023-04-06T04:15:32;18.57;;;12.50;;
18947;SDS011;9607;51.600;7.558;2023-04-06T04:17:58;16.80;;;12.33;;
18947;SDS011;9607;51.600;7.558;2023-04-06T04:20:25;16.97;;;11.67;;
18947;SDS011;9607;51.600;7.558;2023-04-06T04:22:53;19.03;;;13.13;;
18947;SDS011;9607;51.600;7.558;2023-04-06T04:25:20;18.43;;;13.07;;
18947;SDS011;9607;51.600;7.558;2023-04-06T04:27:47;19.03;;;13.77;;
18947;SDS011;9607;51.600;7.558;2023-04-06T04:30:13;21.60;;;14.13;;
18947;SDS011;9607;51.600;7.558;2023-04-06T04:32:42;21.83;;;13.40;;
18947;SDS011;9607;51.600;7.558;2023-04-06T04:35:09;23.57;;;15.57;;
18947;SDS011;9607;51.600;7.558;2023-04-06T04:37:36;22.33;;;13.90;;
18947;SDS011;9607;51.600;7.558;2023-04-06T04:40:03;18.30;;;13.73;;
18947;SDS011;9607;51.600;7.558;2023-04-06T04:42:30;20.07;;;13.30;;
18947;SDS011;9607;51.600;7.558;2023-04-06T04:44:57;20.97;;;13.70;;
18947;SDS011;9607;51.600;7.558;2023-04-06T04:47:24;21.37;;;13.97;;
18947;SDS011;9607;51.600;7.558;2023-04-06T04:49:52;19.17;;;12.33;;
18947;SDS011;9607;51.600;7.558;2023-04-06T04:52:19;18.60;;;12.70;;
18947;SDS011;9607;51.600;7.558;2023-04-06T04:54:45;16.93;;;12.00;;
18947;SDS011;9607;51.600;7.558;2023-04-06T04:57:13;17.50;;;11.63;;
18947;SDS011;9607;51.600;7.558;2023-04-06T04:59:39;17.23;;;11.70;;
18947;SDS011;9607;51.600;7.558;2023-04-06T05:02:06;18.30;;;11.87;;
18947;SDS011;9607;51.600;7.558;2023-04-06T05:04:33;17.30;;;11.83;;
18947;SDS011;9607;51.600;7.558;2023-04-06T05:07:05;24.10;;;15.73;;
18947;SDS011;9607;51.600;7.558;2023-04-06T05:09:33;21.27;;;14.70;;
18947;SDS011;9607;51.600;7.558;2023-04-06T05:12:00;23.10;;;15.77;;
18947;SDS011;9607;51.600;7.558;2023-04-06T05:14:27;21.60;;;14.60;;
18947;SDS011;9607;51.600;7.558;2023-04-06T05:16:54;18.23;;;13.37;;
18947;SDS011;9607;51.600;7.558;2023-04-06T05:19:21;23.70;;;15.20;;
18947;SDS011;9607;51.600;7.558;2023-04-06T05:21:48;22.00;;;14.03;;
18947;SDS011;9607;51.600;7.558;2023-04-06T05:24:16;17.07;;;12.47;;
18947;SDS011;9607;51.600;7.558;2023-04-06T05:26:43;17.77;;;12.33;;
18947;SDS011;9607;51.600;7.558;2023-04-06T05:29:10;18.63;;;12.97;;
18947;SDS011;9607;51.600;7.558;2023-04-06T05:31:38;15.97;;;11.70;;
18947;SDS011;9607;51.600;7.558;2023-04-06T05:34:05;17.47;;;12.40;;
18947;SDS011;9607;51.600;7.558;2023-04-06T05:36:31;17.23;;;12.70;;
18947;SDS011;9607;51.600;7.558;2023-04-06T05:38:58;19.80;;;13.90;;
18947;SDS011;9607;51.600;7.558;2023-04-06T05:41:27;18.33;;;12.00;;
18947;SDS011;9607;51.600;7.558;2023-04-06T05:43:53;16.10;;;11.50;;
18947;SDS011;9607;51.600;7.558;2023-04-06T05:46:20;15.57;;;10.80;;
18947;SDS011;9607;51.600;7.558;2023-04-06T05:48:47;16.10;;;11.80;;
18947;SDS011;9607;51.600;7.558;2023-04-06T05:51:14;17.80;;;12.20;;
18947;SDS011;9607;51.600;7.558;2023-04-06T05:53:41;18.67;;;13.03;;
18947;SDS011;9607;51.600;7.558;2023-04-06T05:56:08;17.73;;;11.53;;
18947;SDS011;9607;51.600;7.558;2023-04-06T05:58:36;16.50;;;12.07;;
18947;SDS011;9607;51.600;7.558;2023-04-06T06:01:03;14.82;;;11.13;;
18947;SDS011;9607;51.600;7.558;2023-04-06T06:03:30;18.98;;;10.80;;
18947;SDS011;9607;51.600;7.558;2023-04-06T06:06:00;16.27;;;11.65;;
18947;SDS011;9607;51.600;7.558;2023-04-06T06:08:28;15.27;;;10.57;;
18947;SDS011;9607;51.600;7.558;2023-04-06T06:10:55;13.35;;;10.02;;
18947;SDS011;9607;51.600;7.558;2023-04-06T06:13:22;13.18;;;10.50;;
18947;SDS011;9607;51.600;7.558;2023-04-06T06:15:50;14.23;;;9.77;;
18947;SDS011;9607;51.600;7.558;2023-04-06T06:18:17;15.15;;;10.48;;
18947;SDS011;9607;51.600;7.558;2023-04-06T06:20:45;13.05;;;10.30;;
18947;SDS011;9607;51.600;7.558;2023-04-06T06:23:11;13.77;;;10.35;;
18947;SDS011;9607;51.600;7.558;2023-04-06T06:25:38;12.55;;;8.70;;
18947;SDS011;9607;51.600;7.558;2023-04-06T06:28:05;12.15;;;9.60;;
18947;SDS011;9607;51.600;7.558;2023-04-06T06:30:32;12.85;;;9.68;;
18947;SDS011;9607;51.600;7.558;2023-04-06T06:33:01;11.95;;;9.15;;
18947;SDS011;9607;51.600;7.558;2023-04-06T06:35:28;10.10;;;8.02;;
18947;SDS011;9607;51.600;7.558;2023-04-06T06:37:55;11.60;;;8.98;;
18947;SDS011;9607;51.600;7.558;2023-04-06T06:40:21;11.98;;;9.18;;
18947;SDS011;9607;51.600;7.558;2023-04-06T06:42:49;11.05;;;8.52;;
18947;SDS011;9607;51.600;7.558;2023-04-06T06:45:16;10.40;;;7.47;;
18947;SDS011;9607;51.600;7.558;2023-04-06T06:47:45;10.50;;;8.27;;
18947;SDS011;9607;51.600;7.558;2023-04-06T06:50:13;9.57;;;7.78;;
18947;SDS011;9607;51.600;7.558;2023-04-06T06:52:40;8.57;;;6.78;;
18947;SDS011;9607;51.600;7.558;2023-04-06T06:55:08;8.15;;;6.63;;
18947;SDS011;9607;51.600;7.558;2023-04-06T06:57:35;8.05;;;6.45;;
18947;SDS011;9607;51.600;7.558;2023-04-06T07:00:03;8.15;;;6.70;;
18947;SDS011;9607;51.600;7.558;2023-04-06T07:02:33;6.93;;;6.00;;
18947;SDS011;9607;51.600;7.558;2023-04-06T07:05:00;7.82;;;6.22;;
18947;SDS011;9607;51.600;7.558;2023-04-06T07:07:28;7.90;;;6.10;;
18947;SDS011;9607;51.600;7.558;2023-04-06T07:09:55;6.40;;;5.53;;
18947;SDS011;9607;51.600;7.558;2023-04-06T07:12:22;6.32;;;5.60;;
18947;SDS011;9607;51.600;7.558;2023-04-06T07:14:49;6.65;;;5.57;;
18947;SDS011;9607;51.600;7.558;2023-04-06T07:17:16;7.20;;;5.45;;
18947;SDS011;9607;51.600;7.558;2023-04-06T07:19:43;6.88;;;5.10;;
18947;SDS011;9607;51.600;7.558;2023-04-06T07:22:10;6.25;;;4.90;;
18947;SDS011;9607;51.600;7.558;2023-04-06T07:24:38;6.43;;;5.32;;
18947;SDS011;9607;51.600;7.558;2023-04-06T07:27:05;6.57;;;5.20;;
18947;SDS011;9607;51.600;7.558;2023-04-06T07:29:32;5.22;;;4.70;;
18947;SDS011;9607;51.600;7.558;2023-04-06T07:31:59;4.13;;;3.60;;
18947;SDS011;9607;51.600;7.558;2023-04-06T07:34:26;4.35;;;3.78;;
18947;SDS011;9607;51.600;7.558;2023-04-06T07:36:52;4.22;;;3.72;;
18947;SDS011;9607;51.600;7.558;2023-04-06T07:39:20;4.97;;;3.55;;
18947;SDS011;9607;51.600;7.558;2023-04-06T07:41:50;4.88;;;3.30;;
18947;SDS011;9607;51.600;7.558;2023-04-06T07:44:17;4.60;;;3.67;;
18947;SDS011;9607;51.600;7.558;2023-04-06T07:46:44;4.30;;;3.63;;
18947;SDS011;9607;51.600;7.558;2023-04-06T07:49:11;5.07;;;3.78;;
18947;SDS011;9607;51.600;7.558;2023-04-06T07:51:38;6.22;;;4.78;;
18947;SDS011;9607;51.600;7.558;2023-04-06T07:54:05;6.45;;;4.82;;
18947;SDS011;9607;51.600;7.558;2023-04-06T07:56:32;4.55;;;3.40;;
18947;SDS011;9607;51.600;7.558;2023-04-06T07:59:00;5.35;;;3.97;;
18947;SDS011;9607;51.600;7.558;2023-04-06T08:01:28;4.35;;;3.30;;
18947;SDS011;9607;51.600;7.558;2023-04-06T08:03:55;7.10;;;4.95;;
18947;SDS011;9607;51.600;7.558;2023-04-06T08:06:21;8.20;;;6.03;;
18947;SDS011;9607;51.600;7.558;2023-04-06T08:08:48;6.60;;;4.60;;
18947;SDS011;9607;51.600;7.558;2023-04-06T08:11:15;4.22;;;3.83;;
18947;SDS011;9607;51.600;7.558;2023-04-06T08:13:42;6.93;;;4.95;;
18947;SDS011;9607;51.600;7.558;2023-04-06T08:16:11;8.70;;;5.80;;
18947;SDS011;9607;51.600;7.558;2023-04-06T08:18:38;7.55;;;5.05;;
18947;SDS011;9607;51.600;7.558;2023-04-06T08:21:04;8.88;;;5.57;;
18947;SDS011;9607;51.600;7.558;2023-04-06T08:23:31;9.07;;;5.95;;
18947;SDS011;9607;51.600;7.558;2023-04-06T08:25:58;8.05;;;5.82;;
18947;SDS011;9607;51.600;7.558;2023-04-06T08:28:25;9.80;;;5.93;;
18947;SDS011;9607;51.600;7.558;2023-04-06T08:30:51;7.45;;;5.07;;
18947;SDS011;9607;51.600;7.558;2023-04-06T08:33:20;7.47;;;4.88;;
18947;SDS011;9607;51.600;7.558;2023-04-06T08:35:47;10.27;;;5.45;;
18947;SDS011;9607;51.600;7.558;2023-04-06T08:38:14;7.38;;;5.63;;
18947;SDS011;9607;51.600;7.558;2023-04-06T08:40:40;10.73;;;6.10;;
18947;SDS011;9607;51.600;7.558;2023-04-06T08:43:09;7.13;;;5.65;;
18947;SDS011;9607;51.600;7.558;2023-04-06T08:45:40;8.98;;;6.50;;
18947;SDS011;9607;51.600;7.558;2023-04-06T08:48:08;8.27;;;5.75;;
18947;SDS011;9607;51.600;7.558;2023-04-06T08:50:37;7.05;;;5.80;;
18947;SDS011;9607;51.600;7.558;2023-04-06T08:53:05;8.85;;;5.40;;
18947;SDS011;9607;51.600;7.558;2023-04-06T08:55:33;7.82;;;5.18;;
18947;SDS011;9607;51.600;7.558;2023-04-06T08:58:01;9.32;;;6.93;;
18947;SDS011;9607;51.600;7.558;2023-04-06T09:00:29;8.15;;;6.45;;
18947;SDS011;9607;51.600;7.558;2023-04-06T09:02:56;8.45;;;6.82;;
18947;SDS011;9607;51.600;7.558;2023-04-06T09:05:24;10.18;;;6.93;;
18947;SDS011;9607;51.600;7.558;2023-04-06T09:07:53;12.25;;;8.95;;
18947;SDS011;9607;51.600;7.558;2023-04-06T09:10:20;10.38;;;7.80;;
18947;SDS011;9607;51.600;7.558;2023-04-06T09:12:50;10.38;;;7.13;;
18947;SDS011;9607;51.600;7.558;2023-04-06T09:15:17;8.65;;;6.50;;
18947;SDS011;9607;51.600;7.558;2023-04-06T09:17:45;8.25;;;5.90;;
18947;SDS011;9607;51.600;7.558;2023-04-06T09:20:11;7.97;;;6.00;;
18947;SDS011;9607;51.600;7.558;2023-04-06T09:22:38;9.80;;;6.78;;
18947;SDS011;9607;51.600;7.558;2023-04-06T09:25:08;13.02;;;9.52;;
18947;SDS011;9607;51.600;7.558;2023-04-06T09:27:36;11.73;;;8.75;;
18947;SDS011;9607;51.600;7.558;2023-04-06T09:30:07;11.82;;;8.43;;
18947;SDS011;9607;51.600;7.558;2023-04-06T09:32:47;13.88;;;8.60;;
18947;SDS011;9607;51.600;7.558;2023-04-06T09:35:15;11.90;;;7.95;;
18947;SDS011;9607;51.600;7.558;2023-04-06T09:37:43;13.32;;;9.15;;
18947;SDS011;9607;51.600;7.558;2023-04-06T09:40:12;12.77;;;8.93;;
18947;SDS011;9607;51.600;7.558;2023-04-06T09:42:42;13.30;;;9.20;;
18947;SDS011;9607;51.600;7.558;2023-04-06T09:45:11;11.50;;;8.48;;
18947;SDS011;9607;51.600;7.558;2023-04-06T09:47:39;16.02;;;9.00;;
18947;SDS011;9607;51.600;7.558;2023-04-06T09:50:10;10.63;;;8.32;;
18947;SDS011;9607;51.600;7.558;2023-04-06T09:52:39;10.20;;;8.23;;
18947;SDS011;9607;51.600;7.558;2023-04-06T09:55:09;10.40;;;7.93;;
18947;SDS011;9607;51.600;7.558;2023-04-06T09:57:41;10.93;;;8.02;;
18947;SDS011;9607;51.600;7.558;2023-04-06T10:00:13;9.63;;;7.03;;
18947;SDS011;9607;51.600;7.558;2023-04-06T10:02:45;8.98;;;7.32;;
18947;SDS011;9607;51.600;7.558;2023-04-06T10:05:17;10.13;;;8.10;;
18947;SDS011;9607;51.600;7.558;2023-04-06T10:07:50;11.38;;;8.85;;
18947;SDS011;9607;51.600;7.558;2023-04-06T10:10:24;13.85;;;9.23;;
18947;SDS011;9607;51.600;7.558;2023-04-06T10:12:51;11.25;;;8.57;;
18947;SDS011;9607;51.600;7.558;2023-04-06T10:15:18;9.18;;;7.80;;
18947;SDS011;9607;51.600;7.558;2023-04-06T10:17:45;8.80;;;7.28;;
18947;SDS011;9607;51.600;7.558;2023-04-06T10:20:14;10.07;;;7.75;;
18947;SDS011;9607;51.600;7.558;2023-04-06T10:22:49;11.88;;;8.70;;
18947;SDS011;9607;51.600;7.558;2023-04-06T10:25:29;8.80;;;7.50;;
18947;SDS011;9607;51.600;7.558;2023-04-06T10:28:00;13.25;;;8.32;;
18947;SDS011;9607;51.600;7.558;2023-04-06T10:30:28;10.38;;;7.43;;
18947;SDS011;9607;51.600;7.558;2023-04-06T10:32:55;9.75;;;8.20;;
18947;SDS011;9607;51.600;7.558;2023-04-06T10:35:23;8.10;;;7.00;;
18947;SDS011;9607;51.600;7.558;2023-04-06T10:37:51;10.10;;;6.88;;
18947;SDS011;9607;51.600;7.558;2023-04-06T10:40:22;9.98;;;8.50;;
18947;SDS011;9607;51.600;7.558;2023-04-06T10:42:52;10.20;;;7.70;;
18947;SDS011;9607;51.600;7.558;2023-04-06T10:45:20;11.93;;;8.35;;
18947;SDS011;9607;51.600;7.558;2023-04-06T10:47:52;9.75;;;7.50;;
18947;SDS011;9607;51.600;7.558;2023-04-06T10:50:19;9.15;;;7.43;;
18947;SDS011;9607;51.600;7.558;2023-04-06T10:52:47;12.25;;;8.80;;
18947;SDS011;9607;51.600;7.558;2023-04-06T10:55:25;9.38;;;7.68;;
18947;SDS011;9607;51.600;7.558;2023-04-06T10:57:54;14.15;;;9.68;;
18947;SDS011;9607;51.600;7.558;2023-04-06T11:00:21;14.23;;;11.07;;
18947;SDS011;9607;51.600;7.558;2023-04-06T11:02:49;14.15;;;10.85;;
18947;SDS011;9607;51.600;7.558;2023-04-06T11:05:16;13.50;;;10.65;;
18947;SDS011;9607;51.600;7.558;2023-04-06T11:07:43;13.52;;;10.60;;
18947;SDS011;9607;51.600;7.558;2023-04-06T11:10:10;12.32;;;10.63;;
18947;SDS011;9607;51.600;7.558;2023-04-06T11:12:37;14.73;;;11.35;;
18947;SDS011;9607;51.600;7.558;2023-04-06T11:15:06;12.30;;;9.80;;
18947;SDS011;9607;51.600;7.558;2023-04-06T11:17:34;15.07;;;10.60;;
18947;SDS011;9607;51.600;7.558;2023-04-06T11:20:02;16.08;;;12.45;;
18947;SDS011;9607;51.600;7.558;2023-04-06T11:22:30;13.77;;;11.23;;
18947;SDS011;9607;51.600;7.558;2023-04-06T11:25:04;12.52;;;10.05;;
18947;SDS011;9607;51.600;7.558;2023-04-06T11:27:32;11.90;;;10.20;;
18947;SDS011;9607;51.600;7.558;2023-04-06T11:30:00;13.75;;;10.85;;
18947;SDS011;9607;51.600;7.558;2023-04-06T11:32:28;13.73;;;10.82;;
18947;SDS011;9607;51.600;7.558;2023-04-06T11:34:57;13.65;;;10.25;;
18947;SDS011;9607;51.600;7.558;2023-04-06T11:37:26;12.05;;;9.43;;
18947;SDS011;9607;51.600;7.558;2023-04-06T11:39:54;14.07;;;9.15;;
18947;SDS011;9607;51.600;7.558;2023-04-06T11:42:25;11.77;;;9.32;;
18947;SDS011;9607;51.600;7.558;2023-04-06T11:44:53;13.10;;;10.45;;
18947;SDS011;9607;51.600;7.558;2023-04-06T11:47:27;12.18;;;9.25;;
18947;SDS011;9607;51.600;7.558;2023-04-06T11:49:56;12.30;;;9.50;;
18947;SDS011;9607;51.600;7.558;2023-04-06T11:52:32;12.55;;;9.73;;
18947;SDS011;9607;51.600;7.558;2023-04-06T11:54:58;12.13;;;9.80;;
18947;SDS011;9607;51.600;7.558;2023-04-06T11:57:37;10.82;;;8.77;;
18947;SDS011;9607;51.600;7.558;2023-04-06T12:00:04;11.00;;;9.50;;
18947;SDS011;9607;51.600;7.558;2023-04-06T12:02:33;12.65;;;10.30;;
18947;SDS011;9607;51.600;7.558;2023-04-06T12:05:01;11.63;;;9.63;;
18947;SDS011;9607;51.600;7.558;2023-04-06T12:07:28;15.63;;;11.18;;
18947;SDS011;9607;51.600;7.558;2023-04-06T12:09:54;15.73;;;11.07;;
18947;SDS011;9607;51.600;7.558;2023-04-06T12:12:21;10.77;;;9.32;;
18947;SDS011;9607;51.600;7.558;2023-04-06T12:14:48;10.95;;;9.55;;
18947;SDS011;9607;51.600;7.558;2023-04-06T12:17:15;15.95;;;11.35;;
18947;SDS011;9607;51.600;7.558;2023-04-06T12:19:43;14.05;;;12.27;;
18947;SDS011;9607;51.600;7.558;2023-04-06T12:22:10;15.55;;;10.88;;
18947;SDS011;9607;51.600;7.558;2023-04-06T12:24:38;12.48;;;10.88;;
18947;SDS011;9607;51.600;7.558;2023-04-06T12:27:05;18.15;;;10.85;;
18947;SDS011;9607;51.600;7.558;2023-04-06T12:29:33;14.27;;;11.77;;
18947;SDS011;9607;51.600;7.558;2023-04-06T12:32:00;12.50;;;11.20;;
18947;SDS011;9607;51.600;7.558;2023-04-06T12:34:27;14.20;;;11.45;;
18947;SDS011;9607;51.600;7.558;2023-04-06T12:36:55;14.73;;;12.13;;
18947;SDS011;9607;51.600;7.558;2023-04-06T12:39:22;13.63;;;11.25;;
18947;SDS011;9607;51.600;7.558;2023-04-06T12:41:50;10.60;;;9.50;;
18947;SDS011;9607;51.600;7.558;2023-04-06T12:44:17;14.25;;;11.93;;
18947;SDS011;9607;51.600;7.558;2023-04-06T12:46:43;14.95;;;12.23;;
18947;SDS011;9607;51.600;7.558;2023-04-06T12:49:11;13.43;;;11.13;;
18947;SDS011;9607;51.600;7.558;2023-04-06T12:51:38;14.57;;;12.30;;
18947;SDS011;9607;51.600;7.558;2023-04-06T12:54:06;12.38;;;10.40;;
18947;SDS011;9607;51.600;7.558;2023-04-06T12:56:33;13.68;;;11.35;;
18947;SDS011;9607;51.600;7.558;2023-04-06T12:59:00;12.45;;;9.90;;
18947;SDS011;9607;51.600;7.558;2023-04-06T13:01:27;13.63;;;11.38;;
18947;SDS011;9607;51.600;7.558;2023-04-06T13:03:54;11.95;;;10.57;;
18947;SDS011;9607;51.600;7.558;2023-04-06T13:06:21;12.20;;;10.55;;
18947;SDS011;9607;51.600;7.558;2023-04-06T13:08:52;13.13;;;11.60;;
18947;SDS011;9607;51.600;7.558;2023-04-06T13:11:20;13.23;;;11.60;;
18947;SDS011;9607;51.600;7.558;2023-04-06T13:13:49;16.38;;;11.23;;
18947;SDS011;9607;51.600;7.558;2023-04-06T13:16:16;10.88;;;9.35;;
18947;SDS011;9607;51.600;7.558;2023-04-06T13:18:43;11.40;;;9.10;;
18947;SDS011;9607;51.600;7.558;2023-04-06T13:21:13;13.40;;;11.65;;
18947;SDS011;9607;51.600;7.558;2023-04-06T13:23:41;11.75;;;10.52;;
18947;SDS011;9607;51.600;7.558;2023-04-06T13:26:09;10.27;;;8.88;;
18947;SDS011;9607;51.600;7.558;2023-04-06T13:28:37;13.02;;;8.80;;
18947;SDS011;9607;51.600;7.558;2023-04-06T13:31:05;11.65;;;9.27;;
18947;SDS011;9607;51.600;7.558;2023-04-06T13:33:33;12.55;;;8.88;;
18947;SDS011;9607;51.600;7.558;2023-04-06T13:36:00;8.90;;;7.35;;
18947;SDS011;9607;51.600;7.558;2023-04-06T13:38:27;10.20;;;8.63;;
18947;SDS011;9607;51.600;7.558;2023-04-06T13:40:55;12.07;;;9.57;;
18947;SDS011;9607;51.600;7.558;2023-04-06T13:43:22;16.20;;;11.05;;
18947;SDS011;9607;51.600;7.558;2023-04-06T13:45:53;9.52;;;8.50;;
18947;SDS011;9607;51.600;7.558;2023-04-06T13:48:23;11.15;;;8.57;;
18947;SDS011;9607;51.600;7.558;2023-04-06T13:50:50;9.82;;;7.53;;
18947;SDS011;9607;51.600;7.558;2023-04-06T13:53:17;8.77;;;7.88;;
18947;SDS011;9607;51.600;7.558;2023-04-06T13:55:51;9.00;;;7.53;;
18947;SDS011;9607;51.600;7.558;2023-04-06T13:58:18;9.30;;;7.05;;
18947;SDS011;9607;51.600;7.558;2023-04-06T14:00:45;9.40;;;8.05;;
18947;SDS011;9607;51.600;7.558;2023-04-06T14:03:14;9.10;;;7.00;;
18947;SDS011;9607;51.600;7.558;2023-04-06T14:05:41;8.73;;;6.90;;
18947;SDS011;9607;51.600;7.558;2023-04-06T14:08:08;10.23;;;6.68;;
18947;SDS011;9607;51.600;7.558;2023-04-06T14:10:36;7.78;;;6.47;;
18947;SDS011;9607;51.600;7.558;2023-04-06T14:13:03;9.27;;;7.90;;
18947;SDS011;9607;51.600;7.558;2023-04-06T14:15:30;8.57;;;6.93;;
18947;SDS011;9607;51.600;7.558;2023-04-06T14:17:57;11.07;;;7.95;;
18947;SDS011;9607;51.600;7.558;2023-04-06T14:20:25;10.43;;;8.80;;
18947;SDS011;9607;51.600;7.558;2023-04-06T14:22:52;10.45;;;8.65;;
18947;SDS011;9607;51.600;7.558;2023-04-06T14:25:20;11.07;;;8.68;;
18947;SDS011;9607;51.600;7.558;2023-04-06T14:27:47;13.38;;;9.23;;
18947;SDS011;9607;51.600;7.558;2023-04-06T14:30:14;9.50;;;8.15;;
18947;SDS011;9607;51.600;7.558;2023-04-06T14:32:41;8.20;;;6.95;;
18947;SDS011;9607;51.600;7.558;2023-04-06T14:35:08;8.63;;;6.32;;
18947;SDS011;9607;51.600;7.558;2023-04-06T14:37:37;6.70;;;5.57;;
18947;SDS011;9607;51.600;7.558;2023-04-06T14:40:04;4.88;;;3.75;;
18947;SDS011;9607;51.600;7.558;2023-04-06T14:42:31;3.30;;;3.00;;
18947;SDS011;9607;51.600;7.558;2023-04-06T14:44:58;8.60;;;4.60;;
18947;SDS011;9607;51.600;7.558;2023-04-06T14:47:25;4.82;;;3.72;;